createdAt,value
2023-04-19T00:00:28.815Z,25.40
2023-04-19T00:03:02.290Z,24.35
2023-04-19T00:05:48.840Z,27.90
2023-04-19T00:08:24.962Z,25.63
2023-04-19T00:11:11.844Z,25.63
2023-04-19T00:13:44.994Z,26.55
2023-04-19T00:16:31.871Z,27.33
2023-04-19T00:19:04.946Z,26.30
2023-04-19T00:21:51.888Z,26.30
2023-04-19T00:24:24.985Z,27.67
2023-04-19T00:27:11.857Z,27.02
2023-04-19T00:29:44.956Z,26.20
2023-04-19T00:32:31.932Z,27.35
2023-04-19T00:35:04.956Z,28.23
2023-04-19T00:37:51.843Z,28.48
2023-04-19T00:40:25.007Z,29.00
2023-04-19T00:43:11.890Z,29.73
2023-04-19T00:45:44.970Z,30.52
2023-04-19T00:48:24.871Z,30.02
2023-04-19T00:51:04.930Z,29.65
2023-04-19T00:53:37.937Z,29.58
2023-04-19T00:56:25.870Z,28.70
2023-04-19T00:59:00.983Z,30.30
2023-04-19T01:01:47.887Z,28.50
2023-04-19T01:04:23.147Z,29.67
2023-04-19T01:07:09.866Z,30.80
2023-04-19T01:09:47.960Z,29.98
2023-04-19T01:12:34.840Z,31.98
2023-04-19T01:15:08.965Z,33.75
2023-04-19T01:17:55.923Z,31.60
2023-04-19T01:20:35.866Z,33.70
2023-04-19T01:23:23.871Z,32.13
2023-04-19T01:25:56.968Z,32.15
2023-04-19T01:28:43.871Z,31.98
2023-04-19T01:31:17.060Z,32.45
2023-04-19T01:34:03.882Z,34.40
2023-04-19T01:36:43.867Z,33.03
2023-04-19T01:39:38.887Z,34.03
2023-04-19T01:42:25.889Z,32.63
2023-04-19T01:44:58.971Z,34.95
2023-04-19T01:47:45.920Z,34.22
2023-04-19T01:50:25.887Z,34.72
2023-04-19T01:53:19.879Z,33.72
2023-04-19T01:56:06.872Z,34.13
2023-04-19T01:58:39.984Z,33.70
2023-04-19T02:01:26.961Z,34.42
2023-04-19T02:04:06.971Z,35.85
2023-04-19T02:06:57.050Z,35.05
2023-04-19T02:09:29.984Z,34.15
2023-04-19T02:12:16.997Z,35.38
2023-04-19T02:14:49.984Z,36.58
2023-04-19T02:17:36.969Z,35.47
2023-04-19T02:20:11.098Z,34.15
2023-04-19T02:22:57.897Z,33.50
2023-04-19T02:25:31.252Z,33.05
2023-04-19T02:28:17.899Z,33.33
2023-04-19T02:30:51.015Z,33.25
2023-04-19T02:33:37.904Z,33.08
2023-04-19T02:36:17.897Z,33.50
2023-04-19T02:39:11.907Z,32.40
2023-04-19T02:41:58.905Z,34.22
2023-04-19T02:44:32.080Z,33.50
2023-04-19T02:47:18.919Z,34.63
2023-04-19T02:49:51.985Z,32.55
2023-04-19T02:52:38.911Z,32.55
2023-04-19T02:55:13.028Z,33.08
2023-04-19T02:57:59.924Z,33.28
2023-04-19T03:00:33.019Z,33.55
2023-04-19T03:03:20.056Z,31.33
2023-04-19T03:05:53.038Z,30.85
2023-04-19T03:08:39.902Z,32.08
2023-04-19T03:11:13.011Z,32.05
2023-04-19T03:13:59.911Z,30.65
2023-04-19T03:16:33.774Z,30.83
2023-04-19T03:19:20.910Z,30.85
2023-04-19T03:21:54.006Z,30.80
2023-04-19T03:24:40.916Z,29.85
2023-04-19T03:27:20.961Z,31.20
2023-04-19T03:30:07.951Z,31.58
2023-04-19T03:32:41.094Z,29.40
2023-04-19T03:35:28.904Z,30.90
2023-04-19T03:38:02.025Z,31.58
2023-04-19T03:40:48.902Z,29.60
2023-04-19T03:43:22.439Z,29.35
2023-04-19T03:46:08.937Z,30.48
2023-04-19T03:48:42.098Z,29.13
2023-04-19T03:51:28.952Z,29.83
2023-04-19T03:54:02.044Z,28.10
2023-04-19T03:56:48.960Z,27.58
2023-04-19T03:59:22.059Z,28.75
2023-04-19T04:02:09.016Z,27.50
2023-04-19T04:04:42.183Z,27.77
2023-04-19T04:07:29.922Z,27.88
2023-04-19T04:10:03.069Z,28.80
2023-04-19T04:12:49.902Z,26.73
2023-04-19T04:15:23.023Z,27.50
2023-04-19T04:18:24.910Z,24.45
2023-04-19T04:21:18.937Z,27.02
2023-04-19T04:24:08.935Z,27.23
2023-04-19T04:26:48.916Z,27.80
2023-04-19T04:29:35.967Z,29.20
2023-04-19T04:32:11.190Z,29.85
2023-04-19T04:34:57.951Z,27.50
2023-04-19T04:37:37.936Z,28.10
2023-04-19T04:40:31.970Z,26.10
2023-04-19T04:43:26.003Z,26.40
2023-04-19T04:46:20.050Z,26.73
2023-04-19T04:49:09.965Z,27.25
2023-04-19T04:51:43.050Z,25.67
2023-04-19T04:54:29.971Z,25.65
2023-04-19T04:57:04.048Z,29.25
2023-04-19T04:59:50.954Z,28.77
2023-04-19T05:02:25.778Z,28.50
2023-04-19T05:05:12.951Z,29.27
2023-04-19T05:07:52.969Z,28.77
2023-04-19T05:10:46.969Z,25.55
2023-04-19T05:13:33.972Z,23.30
2023-04-19T05:16:07.129Z,16.25
2023-04-19T05:18:53.977Z,16.50
2023-04-19T05:21:47.986Z,17.05
2023-04-19T05:24:34.965Z,18.98
2023-04-19T05:27:14.968Z,16.23
2023-04-19T05:30:02.010Z,15.73
2023-04-19T05:32:41.979Z,14.88
2023-04-19T05:35:36.005Z,14.43
2023-04-19T05:38:23.973Z,13.32
2023-04-19T05:40:57.094Z,14.20
2023-04-19T05:43:44.022Z,14.25
2023-04-19T05:46:24.000Z,14.32
2023-04-19T05:49:18.001Z,13.90
2023-04-19T05:52:04.994Z,13.95
2023-04-19T05:54:38.138Z,15.60
2023-04-19T05:57:24.965Z,14.68
2023-04-19T06:02:45.100Z,14.13
2023-04-19T06:05:18.179Z,15.27
2023-04-19T06:08:04.987Z,13.90
2023-04-19T06:10:52.608Z,15.30
2023-04-19T06:13:40.995Z,15.60
2023-04-19T06:16:15.207Z,16.75
2023-04-19T06:19:02.013Z,14.85
2023-04-19T06:21:55.980Z,15.98
2023-04-19T06:24:49.997Z,17.27
2023-04-19T06:27:39.021Z,15.00
2023-04-19T06:30:19.989Z,18.50
2023-04-19T06:33:06.997Z,18.52
2023-04-19T06:35:40.113Z,17.60
2023-04-19T06:38:27.064Z,18.15
2023-04-19T06:41:03.175Z,18.08
2023-04-19T06:43:51.191Z,17.67
2023-04-19T06:46:24.143Z,18.48
2023-04-19T06:49:11.011Z,19.10
2023-04-19T06:51:53.024Z,19.02
2023-04-19T06:54:47.025Z,17.52
2023-04-19T06:57:41.026Z,18.00
2023-04-19T07:00:29.078Z,18.42
2023-04-19T07:03:09.191Z,17.42
2023-04-19T07:06:05.013Z,17.25
2023-04-19T07:08:52.022Z,16.15
2023-04-19T07:11:25.363Z,18.65
2023-04-19T07:14:12.015Z,19.80
2023-04-19T07:16:46.270Z,19.20
2023-04-19T07:19:40.016Z,18.48
2023-04-19T07:22:34.003Z,17.75
2023-04-19T07:25:28.014Z,18.77
2023-04-19T07:28:15.019Z,20.40
2023-04-19T07:30:48.122Z,19.20
2023-04-19T07:33:35.118Z,20.33
2023-04-19T07:36:15.090Z,21.52
2023-04-19T07:39:02.030Z,22.30
2023-04-19T07:41:36.312Z,20.58
2023-04-19T07:44:23.031Z,21.23
2023-04-19T07:46:56.440Z,26.00
2023-04-19T07:49:44.045Z,22.42
2023-04-19T07:52:18.456Z,21.88
2023-04-19T07:55:05.026Z,22.48
2023-04-19T07:57:38.133Z,22.35
2023-04-19T08:00:28.036Z,23.77
2023-04-19T08:03:01.303Z,22.98
2023-04-19T08:05:48.204Z,25.15
2023-04-19T08:08:23.638Z,22.27
2023-04-19T08:11:11.086Z,19.73
2023-04-19T08:13:55.086Z,19.83
2023-04-19T08:19:27.176Z,20.38
2023-04-19T08:22:14.032Z,17.52
2023-04-19T08:24:47.175Z,18.70
2023-04-19T08:27:34.026Z,20.38
2023-04-19T08:30:08.028Z,19.60
2023-04-19T08:32:56.997Z,21.58
2023-04-19T08:35:31.292Z,21.63
2023-04-19T08:38:18.051Z,20.85
2023-04-19T08:41:06.046Z,20.98
2023-04-19T08:43:58.056Z,20.98
2023-04-19T08:46:31.202Z,20.77
2023-04-19T08:49:18.295Z,23.52
2023-04-19T08:51:52.250Z,23.42
2023-04-19T08:54:42.357Z,23.02
2023-04-19T08:57:16.292Z,23.08
2023-04-19T09:00:04.307Z,20.83
2023-04-19T09:02:58.146Z,20.75
2023-04-19T09:05:45.278Z,22.63
2023-04-19T09:08:33.377Z,21.50
2023-04-19T09:11:20.068Z,22.65
2023-04-19T09:14:00.079Z,22.10
2023-04-19T09:16:59.080Z,22.80
2023-04-19T09:20:03.054Z,22.13
2023-04-19T09:22:50.070Z,22.25
2023-04-19T09:25:49.236Z,21.73
2023-04-19T09:28:39.085Z,21.35
2023-04-19T09:31:35.748Z,23.10
2023-04-19T09:34:26.078Z,21.80
2023-04-19T09:37:09.071Z,22.23
2023-04-19T09:39:53.073Z,22.77
2023-04-19T09:45:45.127Z,25.52
2023-04-19T09:48:25.220Z,24.63
2023-04-19T09:51:10.568Z,25.40
2023-04-19T09:53:53.485Z,26.13
2023-04-19T09:56:33.103Z,26.05
2023-04-19T09:59:20.808Z,26.83
2023-04-19T10:02:07.217Z,25.52
2023-04-19T10:05:11.244Z,25.67
2023-04-19T10:07:48.241Z,25.38
2023-04-19T10:13:30.282Z,26.45
2023-04-19T10:16:20.206Z,27.50
2023-04-19T10:18:56.305Z,24.75
2023-04-19T10:21:44.095Z,25.75
2023-04-19T10:24:28.085Z,24.88
2023-04-19T10:27:18.180Z,20.52
2023-04-19T10:30:12.755Z,22.33
2023-04-19T10:33:10.163Z,19.50
2023-04-19T10:35:52.098Z,17.70
2023-04-19T10:38:44.107Z,18.17
2023-04-19T10:41:24.139Z,15.93
2023-04-19T10:44:19.117Z,16.38
2023-04-19T10:46:53.205Z,15.05
2023-04-19T10:49:51.121Z,15.52
2023-04-19T10:52:45.182Z,15.15
2023-04-19T10:55:39.104Z,13.13
2023-04-19T10:58:26.102Z,15.88
2023-04-19T11:01:52.300Z,14.00
2023-04-19T11:04:46.181Z,12.70
2023-04-19T11:07:33.140Z,13.35
2023-04-19T11:10:06.724Z,13.80
2023-04-19T11:12:53.125Z,12.60
2023-04-19T11:15:29.230Z,13.20
2023-04-19T11:18:26.279Z,12.82
2023-04-19T11:21:08.124Z,12.93
2023-04-19T11:23:57.125Z,13.65
2023-04-19T11:26:31.485Z,13.88
2023-04-19T11:29:19.117Z,12.68
2023-04-19T11:31:53.273Z,13.88
2023-04-19T11:34:44.150Z,13.20
2023-04-19T11:37:17.320Z,13.68
2023-04-19T11:40:04.897Z,14.85
2023-04-19T11:42:46.132Z,14.38
2023-04-19T11:45:48.157Z,16.40
2023-04-19T11:48:35.138Z,14.52
2023-04-19T11:51:12.309Z,15.23
2023-04-19T11:53:59.185Z,14.90
2023-04-19T11:56:39.195Z,14.85
2023-04-19T11:59:33.200Z,13.00
2023-04-19T12:02:27.286Z,16.67
2023-04-19T12:05:19.527Z,14.82
2023-04-19T12:08:13.286Z,14.75
2023-04-19T12:11:04.455Z,16.20
2023-04-19T12:13:47.144Z,15.57
2023-04-19T12:16:41.207Z,15.57
2023-04-19T12:19:28.151Z,14.88
2023-04-19T12:22:20.412Z,15.30
2023-04-19T12:25:07.186Z,14.90
2023-04-19T12:27:47.155Z,13.82
2023-04-19T12:30:42.158Z,13.65
2023-04-19T12:33:29.224Z,13.68
2023-04-19T12:36:02.262Z,13.18
2023-04-19T12:38:49.201Z,14.18
2023-04-19T12:41:29.241Z,13.75
2023-04-19T12:44:23.185Z,13.55
2023-04-19T12:47:10.147Z,13.40
2023-04-19T12:49:43.322Z,13.23
2023-04-19T12:52:30.220Z,12.80
2023-04-19T12:55:10.210Z,12.63
2023-04-19T12:58:04.241Z,13.82
2023-04-19T13:00:58.192Z,13.35
2023-04-19T13:03:45.251Z,12.30
2023-04-19T13:06:25.192Z,12.18
2023-04-19T13:09:14.918Z,13.90
2023-04-19T13:11:55.194Z,13.43
2023-04-19T13:14:42.225Z,12.63
2023-04-19T13:17:22.257Z,15.18
2023-04-19T13:20:16.214Z,14.00
2023-04-19T13:23:10.216Z,14.35
2023-04-19T13:25:57.195Z,14.30
2023-04-19T13:28:31.093Z,13.68
2023-04-19T13:31:18.280Z,14.52
2023-04-19T13:33:58.211Z,13.48
2023-04-19T13:36:52.232Z,13.00
2023-04-19T13:39:46.227Z,14.70
2023-04-19T13:42:33.207Z,14.80
2023-04-19T13:45:06.321Z,13.40
2023-04-19T13:47:53.431Z,14.30
2023-04-19T13:50:26.319Z,14.77
2023-04-19T13:53:13.236Z,14.13
2023-04-19T13:55:46.538Z,14.23
2023-04-19T13:58:33.205Z,13.50
2023-04-19T14:01:06.412Z,13.25
2023-04-19T14:03:53.366Z,14.32
2023-04-19T14:06:33.211Z,15.35
2023-04-19T14:09:20.218Z,14.23
2023-04-19T14:11:53.327Z,15.52
2023-04-19T14:14:40.304Z,15.68
2023-04-19T14:17:20.271Z,14.65
2023-04-19T14:20:14.225Z,15.23
2023-04-19T14:23:05.240Z,14.57
2023-04-19T14:25:38.576Z,14.70
2023-04-19T14:28:28.957Z,14.10
2023-04-19T14:31:09.223Z,14.48
2023-04-19T14:34:04.217Z,14.32
2023-04-19T14:36:51.650Z,15.55
2023-04-19T14:39:25.391Z,15.27
2023-04-19T14:42:12.262Z,15.10
2023-04-19T14:44:54.249Z,16.73
2023-04-19T14:47:48.323Z,16.63
2023-04-19T14:50:35.225Z,16.30
2023-04-19T14:53:08.384Z,16.45
2023-04-19T14:55:55.235Z,16.88
2023-04-19T14:58:35.231Z,17.23
2023-04-19T15:01:30.341Z,18.95
2023-04-19T15:04:17.387Z,18.60
2023-04-19T15:06:51.600Z,17.10
2023-04-19T15:09:38.320Z,16.92
2023-04-19T15:12:22.412Z,18.63
2023-04-19T15:15:16.342Z,16.95
2023-04-19T15:18:03.350Z,17.50
2023-04-19T15:20:39.762Z,16.35
2023-04-19T15:23:30.265Z,18.00
2023-04-19T15:26:10.246Z,17.38
2023-04-19T15:29:04.232Z,17.73
2023-04-19T15:31:51.280Z,16.80
2023-04-19T15:34:25.437Z,16.90
2023-04-19T15:37:13.243Z,18.50
2023-04-19T15:39:49.514Z,16.77
2023-04-19T15:42:36.249Z,15.77
2023-04-19T15:45:09.843Z,17.73
2023-04-19T15:47:56.305Z,19.23
2023-04-19T15:50:29.383Z,16.00
2023-04-19T15:53:16.287Z,15.70
2023-04-19T15:55:49.442Z,16.73
2023-04-19T15:58:36.260Z,17.52
2023-04-19T16:01:09.390Z,18.00
2023-04-19T16:03:56.678Z,16.60
2023-04-19T16:06:30.452Z,16.33
2023-04-19T16:09:17.415Z,16.92
2023-04-19T16:11:50.568Z,16.48
2023-04-19T16:14:37.297Z,17.45
2023-04-19T16:17:10.493Z,17.30
2023-04-19T16:19:57.350Z,15.27
2023-04-19T16:22:39.298Z,15.95
2023-04-19T16:25:33.288Z,16.05
2023-04-19T16:28:20.280Z,16.80
2023-04-19T16:30:53.637Z,17.40
2023-04-19T16:33:40.344Z,16.27
2023-04-19T16:36:13.391Z,18.70
2023-04-19T16:39:00.316Z,17.30
2023-04-19T16:41:33.384Z,16.05
2023-04-19T16:44:13.305Z,18.10
2023-04-19T16:46:53.393Z,16.80
2023-04-19T16:49:33.308Z,17.42
2023-04-19T16:52:14.331Z,17.08
2023-04-19T16:54:54.327Z,16.27
2023-04-19T16:57:43.305Z,16.42
2023-04-19T17:00:17.624Z,17.77
2023-04-19T17:03:04.485Z,17.83
2023-04-19T17:05:37.397Z,17.67
2023-04-19T17:08:24.276Z,17.27
2023-04-19T17:10:57.398Z,16.80
2023-04-19T17:13:45.296Z,17.15
2023-04-19T17:16:19.516Z,16.80
2023-04-19T17:19:07.302Z,18.00
2023-04-19T17:21:40.490Z,18.35
2023-04-19T17:24:27.339Z,19.98
2023-04-19T17:27:01.425Z,19.27
2023-04-19T17:29:48.310Z,17.38
2023-04-19T17:32:21.385Z,18.23
2023-04-19T17:35:08.295Z,17.75
2023-04-19T17:37:41.435Z,16.73
2023-04-19T17:40:29.696Z,17.50
2023-04-19T17:43:10.352Z,16.70
2023-04-19T17:46:04.345Z,18.00
2023-04-19T17:48:53.340Z,20.10
2023-04-19T17:51:35.339Z,19.95
2023-04-19T17:54:30.328Z,20.55
2023-04-19T17:57:18.334Z,19.80
2023-04-19T17:59:51.576Z,20.15
2023-04-19T18:02:38.492Z,19.48
2023-04-19T18:05:13.586Z,21.90
2023-04-19T18:08:00.344Z,21.45
2023-04-19T18:10:40.360Z,23.00
2023-04-19T18:13:27.345Z,22.55
2023-04-19T18:16:07.358Z,23.25
2023-04-19T18:19:01.357Z,20.73
2023-04-19T18:21:55.342Z,18.48
2023-04-19T18:24:50.348Z,19.83
2023-04-19T18:27:38.361Z,19.52
2023-04-19T18:30:19.349Z,17.70
2023-04-19T18:33:07.387Z,18.15
2023-04-19T18:35:47.348Z,19.92
2023-04-19T18:38:34.395Z,25.08
2023-04-19T18:41:07.483Z,22.33
2023-04-19T18:46:33.395Z,21.15
2023-04-19T18:49:20.389Z,24.65
2023-04-19T18:51:53.521Z,27.25
2023-04-19T18:54:40.323Z,25.13
2023-04-19T18:57:23.240Z,23.77
2023-04-19T19:00:17.394Z,25.05
2023-04-19T19:02:57.442Z,30.38
2023-04-19T19:05:51.471Z,27.00
2023-04-19T19:08:38.392Z,27.65
2023-04-19T19:11:37.389Z,25.75
2023-04-19T19:14:21.485Z,26.20
2023-04-19T19:17:01.419Z,27.25
2023-04-19T19:19:57.409Z,28.85
2023-04-19T19:22:52.344Z,29.13
2023-04-19T19:25:39.345Z,30.35
2023-04-19T19:28:12.566Z,30.17
2023-04-19T19:30:59.441Z,29.13
2023-04-19T19:33:32.987Z,26.77
2023-04-19T19:36:20.368Z,27.10
2023-04-19T19:38:53.443Z,25.42
2023-04-19T19:42:04.661Z,23.73
2023-04-19T19:44:40.347Z,24.55
2023-04-19T19:47:34.531Z,25.58
2023-04-19T19:52:57.488Z,25.60
2023-04-19T19:55:44.350Z,28.30
2023-04-19T19:58:42.576Z,26.30
2023-04-19T20:01:24.388Z,24.75
2023-04-19T20:04:04.544Z,25.55
2023-04-19T20:07:28.891Z,24.27
2023-04-19T20:10:05.411Z,25.30
2023-04-19T20:12:38.563Z,25.77
2023-04-19T20:15:25.389Z,24.60
2023-04-19T20:17:58.564Z,25.77
2023-04-19T20:20:45.385Z,26.90
2023-04-19T20:23:39.395Z,26.08
2023-04-19T20:26:33.418Z,27.27
2023-04-19T20:29:21.422Z,26.67
2023-04-19T20:31:54.564Z,26.27
2023-04-19T20:34:41.403Z,28.67
2023-04-19T20:37:14.450Z,27.65
2023-04-19T20:40:04.377Z,27.13
2023-04-19T20:42:44.382Z,28.63
2023-04-19T20:45:32.420Z,27.55
2023-04-19T20:48:06.132Z,26.67
2023-04-19T20:50:53.395Z,27.40
2023-04-19T20:53:33.400Z,26.98
2023-04-19T20:56:20.387Z,26.52
2023-04-19T20:59:00.385Z,26.58
2023-04-19T21:01:48.410Z,26.48
2023-04-19T21:04:21.662Z,28.83
2023-04-19T21:07:08.384Z,28.63
2023-04-19T21:09:41.497Z,29.98
2023-04-19T21:12:28.388Z,29.08
2023-04-19T21:15:01.559Z,27.85
2023-04-19T21:17:48.406Z,30.00
2023-04-19T21:20:21.515Z,30.27
2023-04-19T21:23:15.435Z,30.58
2023-04-19T21:26:11.403Z,29.92
2023-04-19T21:29:05.403Z,29.55
2023-04-19T21:31:52.482Z,30.55
2023-04-19T21:34:25.495Z,30.27
2023-04-19T21:37:12.418Z,30.35
2023-04-19T21:39:45.636Z,30.98
2023-04-19T21:42:32.412Z,29.90
2023-04-19T21:45:05.853Z,30.02
2023-04-19T21:47:52.434Z,29.98
2023-04-19T21:50:32.433Z,30.52
2023-04-19T21:53:26.429Z,30.13
2023-04-19T21:56:20.436Z,31.33
2023-04-19T21:59:07.429Z,30.73
2023-04-19T22:01:47.448Z,31.48
2023-04-19T22:04:37.433Z,30.70
2023-04-19T22:07:18.417Z,29.45
2023-04-19T22:10:07.459Z,32.33
2023-04-19T22:12:48.292Z,29.85
2023-04-19T22:15:32.387Z,31.98
2023-04-19T22:18:12.487Z,31.58
2023-04-19T22:20:45.538Z,31.77
2023-04-19T22:23:32.431Z,31.27
2023-04-19T22:26:05.610Z,31.27
2023-04-19T22:28:52.462Z,32.13
2023-04-19T22:31:26.170Z,35.40
2023-04-19T22:34:12.423Z,34.33
2023-04-19T22:36:45.560Z,32.92
2023-04-19T22:39:33.425Z,32.45
2023-04-19T22:42:06.551Z,32.85
2023-04-19T22:44:53.432Z,32.55
2023-04-19T22:47:33.463Z,33.20
2023-04-19T22:50:20.444Z,34.70
2023-04-19T22:53:00.415Z,32.80
2023-04-19T22:55:54.427Z,31.08
2023-04-19T22:58:41.422Z,32.35
2023-04-19T23:01:14.620Z,32.92
2023-04-19T23:04:01.429Z,33.47
2023-04-19T23:06:34.575Z,29.55
2023-04-19T23:09:21.438Z,32.88
2023-04-19T23:11:54.941Z,32.80
2023-04-19T23:14:41.448Z,33.40
2023-04-19T23:17:15.950Z,32.03
2023-04-19T23:20:02.474Z,29.13
2023-04-19T23:22:42.456Z,32.00
2023-04-19T23:25:36.440Z,33.47
2023-04-19T23:28:23.452Z,32.83
2023-04-19T23:30:56.570Z,32.10
2023-04-19T23:33:36.445Z,29.73
2023-04-19T23:36:16.478Z,30.58
2023-04-19T23:38:49.560Z,28.15
2023-04-19T23:41:36.467Z,28.88
2023-04-19T23:44:09.557Z,28.65
2023-04-19T23:46:56.592Z,28.55
2023-04-19T23:49:29.566Z,29.23
2023-04-19T23:52:16.484Z,29.20
2023-04-19T23:54:49.622Z,29.80
2023-04-19T23:57:36.479Z,27.20
